createdAt,value
2017-09-04T12:40:26.005Z,37.96
2017-09-04T12:40:30.216Z,37.77
2017-09-04T12:40:34.173Z,38.45
2017-09-04T12:40:38.265Z,38.16
2017-09-04T12:40:42.105Z,38.45
2017-09-04T12:40:46.309Z,38.75
2017-09-04T12:40:50.643Z,38.35
2017-09-04T12:40:54.831Z,38.55
2017-09-04T12:40:59.025Z,38.55
2017-09-04T12:41:03.404Z,38.24
2017-09-04T12:41:07.506Z,38.53
2017-09-04T12:41:11.468Z,38.34
2017-09-04T12:41:15.411Z,38.53
2017-09-04T12:41:19.492Z,38.43
2017-09-04T12:41:23.941Z,38.43
2017-09-04T12:41:28.034Z,38.43
2017-09-04T12:41:31.873Z,38.73
2017-09-04T12:41:35.987Z,38.34
2017-09-04T12:41:40.068Z,38.82
2017-09-04T12:41:44.184Z,38.73
2017-09-04T12:41:48.283Z,38.63
2017-09-04T12:41:52.362Z,38.53
2017-09-04T12:41:56.701Z,38.53
2017-09-04T12:42:00.561Z,38.53
2017-09-04T12:42:04.776Z,38.63
2017-09-04T12:42:08.857Z,38.73
2017-09-04T12:42:12.940Z,38.45
2017-09-04T12:42:17.287Z,38.65
2017-09-04T12:42:21.489Z,38.28
2017-09-04T12:42:25.573Z,38.38
2017-09-04T12:42:29.404Z,38.45
2017-09-04T12:42:33.743Z,38.16
2017-09-04T12:42:37.822Z,37.87
2017-09-04T12:42:41.653Z,37.67
2017-09-04T12:42:45.747Z,37.67
2017-09-04T12:42:49.839Z,37.67
2017-09-04T12:42:53.781Z,37.77
2017-09-04T12:42:57.611Z,37.67
2017-09-04T12:43:02.233Z,37.77
2017-09-04T12:43:06.575Z,37.7
2017-09-04T12:43:10.662Z,37.6
2017-09-04T12:43:14.742Z,37.41
2017-09-04T12:43:18.707Z,37.43
2017-09-04T12:43:23.041Z,36.94
2017-09-04T12:43:27.245Z,36.85
2017-09-04T12:43:31.193Z,36.57
2017-09-04T12:43:35.404Z,36.79
2017-09-04T12:43:39.504Z,36.59
2017-09-04T12:43:43.840Z,36.41
2017-09-04T12:43:48.057Z,36.22
2017-09-04T12:43:52.158Z,36.33
2017-09-04T12:43:56.501Z,36.53
2017-09-04T12:44:00.842Z,35.85
2017-09-04T12:44:05.303Z,35.65
2017-09-04T12:44:09.524Z,35.75
2017-09-04T12:44:13.740Z,35.75
2017-09-04T12:44:17.954Z,35.73
2017-09-04T12:44:22.159Z,35.63
2017-09-04T12:44:26.248Z,35.73
2017-09-04T12:44:30.490Z,35.61
2017-09-04T12:44:34.573Z,35.71
2017-09-04T12:44:38.889Z,35.71
2017-09-04T12:44:43.222Z,35.71
2017-09-04T12:44:47.049Z,35.6
2017-09-04T12:44:50.897Z,35.69
2017-09-04T12:44:55.130Z,35.6
2017-09-04T12:44:59.357Z,35.89
2017-09-04T12:45:03.413Z,36.16
2017-09-04T12:45:07.617Z,36.46
2017-09-04T12:45:11.687Z,36.36
2017-09-04T12:45:15.775Z,36.26
2017-09-04T12:45:20.106Z,36.26
2017-09-04T12:45:24.176Z,36.15
2017-09-04T12:45:28.133Z,36.15
2017-09-04T12:45:32.483Z,36.44
2017-09-04T12:45:36.599Z,36.54
2017-09-04T12:45:40.441Z,36.33
2017-09-04T12:45:44.803Z,36.72
2017-09-04T12:45:48.885Z,36.52
2017-09-04T12:45:52.859Z,36.43
2017-09-04T12:45:56.817Z,36.82
2017-09-04T12:46:01.160Z,36.91
2017-09-04T12:46:05.575Z,36.9
2017-09-04T12:46:09.680Z,36.9
2017-09-04T12:46:13.885Z,36.8
2017-09-04T12:46:18.223Z,36.9
2017-09-04T12:46:22.437Z,37.09
2017-09-04T12:46:26.658Z,37.09
2017-09-04T12:46:30.644Z,37.29
2017-09-04T12:46:34.721Z,37.19
2017-09-04T12:46:39.057Z,37.38
2017-09-04T12:46:43.024Z,37.67
2017-09-04T12:46:46.983Z,37.48
2017-09-04T12:46:50.815Z,37.48
2017-09-04T12:46:54.893Z,37.67
2017-09-04T12:46:58.850Z,37.29
2017-09-04T12:47:02.938Z,37.57
2017-09-04T12:47:07.284Z,37.57
2017-09-04T12:47:11.502Z,37.57
2017-09-04T12:47:15.588Z,37.6
2017-09-04T12:47:19.667Z,37.6
2017-09-04T12:47:23.995Z,37.71
2017-09-04T12:47:28.091Z,38.02
2017-09-04T12:47:32.418Z,37.83
2017-09-04T12:47:36.382Z,37.75
2017-09-04T12:47:40.585Z,37.55
2017-09-04T12:47:44.806Z,37.47
2017-09-04T12:47:48.758Z,36.98
2017-09-04T12:47:53.086Z,36.87
2017-09-04T12:47:57.424Z,36.57
2017-09-04T12:48:01.652Z,36.67
2017-09-04T12:48:06.066Z,36.67
2017-09-04T12:48:09.900Z,36.46
2017-09-04T12:48:14.109Z,36.55
2017-09-04T12:48:18.434Z,36.55
2017-09-04T12:48:22.515Z,36.65
2017-09-04T12:48:26.608Z,36.55
2017-09-04T12:48:30.564Z,36.34
2017-09-04T12:48:34.774Z,36.63
2017-09-04T12:48:38.975Z,36.54
2017-09-04T12:48:43.065Z,36.93
2017-09-04T12:48:46.885Z,37.01
2017-09-04T12:48:50.719Z,37.11
2017-09-04T12:48:54.927Z,37.3
2017-09-04T12:48:59.011Z,37.4
2017-09-04T12:49:03.235Z,37.5
2017-09-04T12:49:07.330Z,37.79
2017-09-04T12:49:11.540Z,37.67
2017-09-04T12:49:15.757Z,37.87
2017-09-04T12:49:19.980Z,37.96
2017-09-04T12:49:24.073Z,38.06
2017-09-04T12:49:28.043Z,38.26
2017-09-04T12:49:32.117Z,38.16
2017-09-04T12:49:36.334Z,37.96
2017-09-04T12:49:40.650Z,38.06
2017-09-04T12:49:44.607Z,38.26
2017-09-04T12:49:48.702Z,38.26
2017-09-04T12:49:53.036Z,38.24
2017-09-04T12:49:56.990Z,38.24
2017-09-04T12:50:00.945Z,38.14
2017-09-04T12:50:05.177Z,37.85
2017-09-04T12:50:09.529Z,38.04
2017-09-04T12:50:13.241Z,38.12
2017-09-04T12:50:17.447Z,37.95
2017-09-04T12:50:21.527Z,37.83
2017-09-04T12:50:25.740Z,38.12
2017-09-04T12:50:29.701Z,37.93
2017-09-04T12:50:33.784Z,37.63
2017-09-04T12:50:37.739Z,38.02
2017-09-04T12:50:41.693Z,38.22
2017-09-04T12:50:46.040Z,38.42
2017-09-04T12:50:50.135Z,37.93
2017-09-04T12:50:54.335Z,38.42
2017-09-04T12:50:58.417Z,38.22
2017-09-04T12:51:02.920Z,38.1
2017-09-04T12:51:06.879Z,38.3
2017-09-04T12:51:11.212Z,38.4
2017-09-04T12:51:15.290Z,38.49
2017-09-04T12:51:19.488Z,38.4
2017-09-04T12:51:23.703Z,38.3
2017-09-04T12:51:27.675Z,38.42
2017-09-04T12:51:31.647Z,38.2
2017-09-04T12:51:35.731Z,38.01
2017-09-04T12:51:39.936Z,38.3
2017-09-04T12:51:44.030Z,38.2
2017-09-04T12:51:47.997Z,38.59
2017-09-04T12:51:52.078Z,38.59
2017-09-04T12:51:56.295Z,38.3
2017-09-04T12:52:00.522Z,38.59
2017-09-04T12:52:04.493Z,38.2
2017-09-04T12:52:08.703Z,38.32
2017-09-04T12:52:12.675Z,38.32
2017-09-04T12:52:17.005Z,38.9
2017-09-04T12:52:21.214Z,38.43
2017-09-04T12:52:25.423Z,38.43
2017-09-04T12:52:29.253Z,38.45
2017-09-04T12:52:33.372Z,38.55
2017-09-04T12:52:37.724Z,38.28
2017-09-04T12:52:42.064Z,38.38
2017-09-04T12:52:46.151Z,38.01
2017-09-04T12:52:50.387Z,37.93
2017-09-04T12:52:54.580Z,37.63
2017-09-04T12:52:58.663Z,37.65
2017-09-04T12:53:02.833Z,37.55
2017-09-04T12:53:07.043Z,37.16
2017-09-04T12:53:11.015Z,37.08
2017-09-04T12:53:15.355Z,36.9
2017-09-04T12:53:19.570Z,36.71
2017-09-04T12:53:23.922Z,36.61
2017-09-04T12:53:28.010Z,36.33
2017-09-04T12:53:32.093Z,36.33
2017-09-04T12:53:36.548Z,36.35
2017-09-04T12:53:40.757Z,35.76
2017-09-04T12:53:45.010Z,35.88
2017-09-04T12:53:49.090Z,35.78
2017-09-04T12:53:53.175Z,35.58
2017-09-04T12:53:57.116Z,35.31
2017-09-04T12:54:01.187Z,35.41
2017-09-04T12:54:05.374Z,35.13
2017-09-04T12:54:09.569Z,35.03
2017-09-04T12:54:13.772Z,35.13
2017-09-04T12:54:17.982Z,34.56
2017-09-04T12:54:22.077Z,34.75
2017-09-04T12:54:26.286Z,34.46
2017-09-04T12:54:30.529Z,34.28
2017-09-04T12:54:34.990Z,34.18
2017-09-04T12:54:39.077Z,34.18
2017-09-04T12:54:43.309Z,34.1
2017-09-04T12:54:47.286Z,33.7
2017-09-04T12:54:51.370Z,33.72
2017-09-04T12:54:55.331Z,33.43
2017-09-04T12:54:59.545Z,33.92
2017-09-04T12:55:03.759Z,33.62
2017-09-04T12:55:07.982Z,33.15
2017-09-04T12:55:11.959Z,33.05
2017-09-04T12:55:16.039Z,32.76
2017-09-04T12:55:20.234Z,32.46
2017-09-04T12:55:24.461Z,32.67
2017-09-04T12:55:28.675Z,32.57
2017-09-04T12:55:32.620Z,32.38
2017-09-04T12:55:36.699Z,32.18
2017-09-04T12:55:40.906Z,32.2
2017-09-04T12:55:45.121Z,31.7
2017-09-04T12:55:49.460Z,31.82
2017-09-04T12:55:53.549Z,31.72
2017-09-04T12:55:57.490Z,31.52
2017-09-04T12:56:01.446Z,31.42
2017-09-04T12:56:05.648Z,30.73
2017-09-04T12:56:09.605Z,30.93
2017-09-04T12:56:13.948Z,31.04
2017-09-04T12:56:18.036Z,30.65
2017-09-04T12:56:21.986Z,30.45
2017-09-04T12:56:25.823Z,30.55
2017-09-04T12:56:29.915Z,29.96
2017-09-04T12:56:34.121Z,29.86
2017-09-04T12:56:38.453Z,29.88
2017-09-04T12:56:42.778Z,29.78
2017-09-04T12:56:47.121Z,29.68
2017-09-04T12:56:51.336Z,29.68
2017-09-04T12:56:55.551Z,29.6
2017-09-04T12:56:59.759Z,29.6
2017-09-04T12:57:03.952Z,29.5
2017-09-04T12:57:08.027Z,29.2
2017-09-04T12:57:12.357Z,29.1
2017-09-04T12:57:16.564Z,28.8
2017-09-04T12:57:20.757Z,29
2017-09-04T12:57:24.830Z,29.21
2017-09-04T12:57:28.909Z,28.82
2017-09-04T12:57:32.992Z,28.72
2017-09-04T12:57:37.212Z,28.52
2017-09-04T12:57:41.274Z,28.74
2017-09-04T12:57:45.478Z,28.33
2017-09-04T12:57:49.450Z,28.34
2017-09-04T12:57:53.520Z,28.34
2017-09-04T12:57:57.988Z,28.34
2017-09-04T12:58:02.074Z,28.03
2017-09-04T12:58:06.164Z,28.13
2017-09-04T12:58:10.246Z,28.13
2017-09-04T12:58:14.218Z,28.13
2017-09-04T12:58:18.447Z,28.14
2017-09-04T12:58:22.291Z,28.14
2017-09-04T12:58:26.380Z,28.34
2017-09-04T12:58:30.603Z,28.24
2017-09-04T12:58:34.816Z,28.75
2017-09-04T12:58:39.018Z,28.55
2017-09-04T12:58:42.964Z,28.75
2017-09-04T12:58:47.041Z,28.96
2017-09-04T12:58:51.120Z,28.96
2017-09-04T12:58:55.067Z,28.96
2017-09-04T12:58:58.898Z,29.16
2017-09-04T12:59:02.860Z,29.17
2017-09-04T12:59:06.933Z,28.97
2017-09-04T12:59:11.013Z,29.07
2017-09-04T12:59:15.102Z,29.38
2017-09-04T12:59:18.812Z,29.09
2017-09-04T12:59:22.760Z,28.99
2017-09-04T12:59:26.847Z,28.89
2017-09-04T12:59:30.815Z,28.89
2017-09-04T12:59:35.019Z,28.31
2017-09-04T12:59:39.372Z,28.31
2017-09-04T12:59:43.453Z,28.21
2017-09-04T12:59:47.540Z,28
2017-09-04T12:59:51.364Z,27.9
2017-09-04T12:59:55.438Z,27.89
2017-09-04T12:59:59.652Z,28.08
2017-09-04T13:00:04.017Z,28.37
2017-09-04T13:00:07.860Z,28.17
2017-09-04T13:00:11.953Z,28.16
2017-09-04T13:00:15.790Z,28.45
2017-09-04T13:00:19.998Z,28.35
2017-09-04T13:00:24.081Z,28.45
2017-09-04T13:00:28.673Z,28.35
2017-09-04T13:00:32.879Z,28.27
2017-09-04T13:00:37.213Z,28.28
2017-09-04T13:00:41.284Z,28.38
2017-09-04T13:00:45.635Z,28.48
2017-09-04T13:00:49.965Z,28.49
2017-09-04T13:00:54.314Z,28.09
2017-09-04T13:00:58.274Z,28.11
2017-09-04T13:01:02.236Z,28.21
2017-09-04T13:01:06.315Z,28.32
2017-09-04T13:01:10.391Z,28.32
2017-09-04T13:01:14.592Z,28.03
2017-09-04T13:01:18.798Z,27.73
2017-09-04T13:01:22.747Z,27.94
2017-09-04T13:01:26.695Z,27.74
2017-09-04T13:01:30.782Z,27.74
2017-09-04T13:01:34.740Z,27.86
2017-09-04T13:01:38.590Z,27.86
2017-09-04T13:01:42.676Z,27.46
2017-09-04T13:01:46.642Z,27.95
2017-09-04T13:01:50.715Z,27.57
2017-09-04T13:01:54.921Z,27.97
2017-09-04T13:01:59.117Z,27.88
2017-09-04T13:02:03.540Z,27.88
2017-09-04T13:02:07.878Z,27.68
2017-09-04T13:02:11.953Z,27.68
2017-09-04T13:02:15.926Z,27.7
2017-09-04T13:02:20.254Z,27.8
2017-09-04T13:02:24.479Z,27.8
2017-09-04T13:02:28.319Z,27.81
2017-09-04T13:02:32.638Z,27.61
2017-09-04T13:02:36.830Z,27.81
2017-09-04T13:02:40.931Z,27.61
2017-09-04T13:02:45.253Z,27.33
2017-09-04T13:02:49.335Z,27.23
2017-09-04T13:02:53.546Z,27.03
2017-09-04T13:02:57.514Z,27.12
2017-09-04T13:03:01.486Z,27.24
2017-09-04T13:03:05.560Z,27.14
2017-09-04T13:03:09.641Z,27.24
2017-09-04T13:03:13.959Z,27.24
2017-09-04T13:03:18.173Z,27.15
2017-09-04T13:03:22.518Z,26.95
2017-09-04T13:03:26.480Z,26.95
2017-09-04T13:03:30.550Z,26.87
2017-09-04T13:03:34.875Z,26.57
2017-09-04T13:03:38.839Z,26.27
2017-09-04T13:03:42.813Z,26.57
2017-09-04T13:03:47.150Z,26.47
2017-09-04T13:03:51.476Z,26.48
2017-09-04T13:03:55.441Z,26.38
2017-09-04T13:03:59.533Z,26.48
2017-09-04T13:04:04.067Z,26.48
2017-09-04T13:04:08.277Z,26.5
2017-09-04T13:04:12.484Z,25.79
2017-09-04T13:04:16.831Z,25.9
2017-09-04T13:04:20.901Z,25.79
2017-09-04T13:04:24.852Z,25.6
2017-09-04T13:04:29.054Z,25.01
2017-09-04T13:04:33.153Z,25.41
2017-09-04T13:04:36.983Z,25.01
2017-09-04T13:04:41.187Z,24.71
2017-09-04T13:04:45.262Z,25.11
2017-09-04T13:04:49.342Z,24.51
2017-09-04T13:04:53.432Z,24.62
2017-09-04T13:04:57.276Z,24.62
2017-09-04T13:05:01.233Z,24.73
2017-09-04T13:05:05.441Z,24.82
2017-09-04T13:05:09.534Z,24.92
2017-09-04T13:05:13.982Z,24.92
2017-09-04T13:05:18.081Z,25.04
2017-09-04T13:05:22.279Z,24.93
2017-09-04T13:05:26.229Z,24.93
2017-09-04T13:05:30.752Z,24.63
2017-09-04T13:05:34.852Z,24.54
2017-09-04T13:05:38.942Z,24.54
2017-09-04T13:05:43.013Z,24.65
2017-09-04T13:05:46.969Z,24.55
2017-09-04T13:05:51.183Z,24.45
2017-09-04T13:05:55.406Z,24.55
2017-09-04T13:05:59.617Z,24.55
2017-09-04T13:06:03.829Z,24.45
2017-09-04T13:06:08.162Z,24.75
2017-09-04T13:06:12.294Z,24.66
2017-09-04T13:06:16.626Z,24.66
2017-09-04T13:06:20.712Z,24.66
2017-09-04T13:06:24.932Z,24.86
2017-09-04T13:06:29.153Z,24.17
2017-09-04T13:06:33.612Z,24.47
2017-09-04T13:06:37.706Z,24.67
2017-09-04T13:06:41.668Z,24.67
2017-09-04T13:06:45.605Z,24.48
2017-09-04T13:06:49.816Z,24.58
2017-09-04T13:06:53.886Z,24.08
2017-09-04T13:06:57.852Z,24.08
2017-09-04T13:07:02.075Z,24.18
2017-09-04T13:07:05.903Z,23.8
2017-09-04T13:07:09.981Z,24.3
2017-09-04T13:07:14.318Z,23.8
2017-09-04T13:07:18.414Z,23.69
2017-09-04T13:07:22.607Z,23.8
2017-09-04T13:07:26.677Z,23.91
2017-09-04T13:07:30.634Z,23.61
2017-09-04T13:07:34.848Z,23.8
2017-09-04T13:07:38.936Z,24.01
2017-09-04T13:07:43.017Z,23.42
2017-09-04T13:07:47.144Z,23.32
2017-09-04T13:07:51.238Z,23.42
2017-09-04T13:07:55.193Z,22.92
2017-09-04T13:07:59.527Z,22.81
2017-09-04T13:08:03.961Z,23.33
2017-09-04T13:08:08.179Z,22.83
2017-09-04T13:08:12.260Z,22.93
2017-09-04T13:08:16.206Z,23.14
2017-09-04T13:08:20.543Z,22.93
2017-09-04T13:08:24.754Z,22.84
2017-09-04T13:08:28.913Z,22.84
2017-09-04T13:08:32.742Z,22.84
2017-09-04T13:08:36.965Z,22.94
2017-09-04T13:08:40.916Z,22.44
2017-09-04T13:08:45.125Z,22.64
2017-09-04T13:08:49.085Z,22.64
2017-09-04T13:08:53.289Z,22.45
2017-09-04T13:08:57.500Z,22.75
2017-09-04T13:09:01.912Z,23.05
2017-09-04T13:09:06.011Z,22.76
2017-09-04T13:09:10.233Z,22.86
2017-09-04T13:09:14.555Z,22.46
2017-09-04T13:09:18.645Z,22.46
2017-09-04T13:09:22.860Z,22.66
2017-09-04T13:09:27.071Z,22.57
2017-09-04T13:09:31.424Z,22.67
2017-09-04T13:09:35.748Z,22.37
2017-09-04T13:09:39.712Z,22.47
2017-09-04T13:09:43.791Z,22.57
2017-09-04T13:09:47.861Z,22.77
2017-09-04T13:09:51.950Z,22.87
2017-09-04T13:09:55.903Z,22.78
2017-09-04T13:10:00.105Z,22.67
2017-09-04T13:10:04.188Z,22.38
2017-09-04T13:10:08.029Z,22.68
2017-09-04T13:10:12.362Z,22.58
2017-09-04T13:10:16.559Z,22.08
2017-09-04T13:10:20.768Z,22.28
2017-09-04T13:10:24.847Z,21.98
2017-09-04T13:10:28.809Z,21.98
2017-09-04T13:10:32.891Z,22.07
2017-09-04T13:10:36.983Z,21.67
2017-09-04T13:10:41.198Z,21.76
2017-09-04T13:10:45.399Z,22.06
2017-09-04T13:10:49.603Z,21.86
2017-09-04T13:10:53.809Z,21.95
2017-09-04T13:10:57.777Z,21.95
2017-09-04T13:11:02.154Z,22.05
2017-09-04T13:11:05.982Z,22.14
2017-09-04T13:11:10.087Z,22.74
2017-09-04T13:11:14.299Z,22.54
2017-09-04T13:11:18.396Z,22.84
2017-09-04T13:11:22.485Z,22.93
2017-09-04T13:11:26.441Z,22.92
2017-09-04T13:11:30.769Z,22.81
2017-09-04T13:11:34.616Z,23.41
2017-09-04T13:11:38.707Z,23.39
2017-09-04T13:11:43.162Z,23.79
2017-09-04T13:11:47.113Z,23.38
2017-09-04T13:11:51.213Z,23.68
2017-09-04T13:11:55.181Z,23.77
2017-09-04T13:11:58.883Z,23.86
2017-09-04T13:12:02.964Z,23.86
2017-09-04T13:12:06.920Z,24.05
2017-09-04T13:12:10.993Z,24.15
2017-09-04T13:12:15.455Z,24.04
2017-09-04T13:12:19.664Z,23.84
2017-09-04T13:12:24.004Z,24.32
2017-09-04T13:12:28.086Z,24.41
2017-09-04T13:12:32.166Z,24.62
2017-09-04T13:12:36.509Z,24.21
2017-09-04T13:12:40.495Z,24.2
2017-09-04T13:12:44.707Z,24.4
2017-09-04T13:12:48.671Z,24.09
2017-09-04T13:12:52.759Z,24.39
2017-09-04T13:12:56.832Z,24.88
2017-09-04T13:13:00.785Z,24.58
2017-09-04T13:13:04.743Z,24.88
2017-09-04T13:13:08.958Z,24.76
2017-09-04T13:13:13.169Z,24.76
2017-09-04T13:13:17.254Z,25.05
2017-09-04T13:13:21.214Z,25.25
2017-09-04T13:13:25.672Z,25.15
2017-09-04T13:13:29.759Z,25.14
2017-09-04T13:13:33.973Z,24.94
2017-09-04T13:13:38.058Z,25.14
2017-09-04T13:13:42.143Z,25.34
2017-09-04T13:13:45.982Z,25.54
2017-09-04T13:13:49.814Z,25.62
2017-09-04T13:13:53.778Z,25.02
2017-09-04T13:13:57.873Z,25.32
2017-09-04T13:14:01.962Z,25.01
2017-09-04T13:14:06.170Z,24.91
2017-09-04T13:14:10.271Z,25.4
2017-09-04T13:14:14.244Z,25.3
2017-09-04T13:14:18.083Z,25.5
2017-09-04T13:14:22.049Z,25.4
2017-09-04T13:14:26.008Z,25.5
2017-09-04T13:14:30.245Z,25.59
2017-09-04T13:14:34.443Z,25.59
2017-09-04T13:14:38.535Z,25.59
2017-09-04T13:14:42.381Z,25.79
2017-09-04T13:14:46.354Z,25.87
2017-09-04T13:14:50.198Z,25.77
2017-09-04T13:14:54.528Z,26.07
2017-09-04T13:14:58.743Z,26.27
2017-09-04T13:15:03.313Z,26.07
2017-09-04T13:15:07.391Z,26.26
2017-09-04T13:15:11.354Z,26.26
2017-09-04T13:15:15.573Z,26.46
2017-09-04T13:15:19.421Z,26.46
2017-09-04T13:15:23.521Z,26.37
2017-09-04T13:15:27.600Z,25.87
2017-09-04T13:15:31.680Z,26.08
2017-09-04T13:15:36.147Z,26.2
2017-09-04T13:15:40.240Z,25.99
2017-09-04T13:15:44.313Z,25.7
2017-09-04T13:15:48.267Z,26.01
2017-09-04T13:15:52.464Z,25.81
2017-09-04T13:15:56.552Z,25.72
2017-09-04T13:16:00.641Z,25.72
2017-09-04T13:16:04.973Z,25.51
2017-09-04T13:16:09.064Z,25.4
2017-09-04T13:16:13.272Z,25.6
2017-09-04T13:16:17.731Z,25.8
2017-09-04T13:16:21.686Z,25.59
2017-09-04T13:16:25.650Z,25.89
2017-09-04T13:16:29.863Z,25.97
2017-09-04T13:16:34.195Z,26.26
2017-09-04T13:16:38.150Z,26.26
2017-09-04T13:16:42.132Z,26.14
2017-09-04T13:16:46.079Z,26.64
2017-09-04T13:16:50.049Z,26.33
2017-09-04T13:16:54.265Z,26.43
2017-09-04T13:16:58.098Z,26.92
2017-09-04T13:17:02.432Z,26.71
2017-09-04T13:17:06.506Z,26.91
2017-09-04T13:17:10.461Z,27.01
2017-09-04T13:17:14.676Z,26.7
2017-09-04T13:17:18.508Z,26.8
2017-09-04T13:17:22.710Z,27
2017-09-04T13:17:26.550Z,27.08
2017-09-04T13:17:30.517Z,26.98
2017-09-04T13:17:34.358Z,26.77
2017-09-04T13:17:38.455Z,27.26
2017-09-04T13:17:42.671Z,27.26
2017-09-04T13:17:46.741Z,27.55
2017-09-04T13:17:50.576Z,27.55
2017-09-04T13:17:54.407Z,27.55
2017-09-04T13:17:58.730Z,27.44
2017-09-04T13:18:02.982Z,27.53
2017-09-04T13:18:07.067Z,27.64
2017-09-04T13:18:10.900Z,27.64
2017-09-04T13:18:14.985Z,27.82
2017-09-04T13:18:18.954Z,28.02
2017-09-04T13:18:23.047Z,28.11
2017-09-04T13:18:27.264Z,27.92
2017-09-04T13:18:31.356Z,28.3
2017-09-04T13:18:35.568Z,28.3
2017-09-04T13:18:39.787Z,28.69
2017-09-04T13:18:43.760Z,28.89
2017-09-04T13:18:47.830Z,28.97
2017-09-04T13:18:51.796Z,28.88
2017-09-04T13:18:55.754Z,29.06
2017-09-04T13:19:00.224Z,29.25
2017-09-04T13:19:04.447Z,29.25
2017-09-04T13:19:08.411Z,29.34
2017-09-04T13:19:12.509Z,29.53
2017-09-04T13:19:16.844Z,29.63
2017-09-04T13:19:20.914Z,29.63
2017-09-04T13:19:24.976Z,29.82
2017-09-04T13:19:28.945Z,30.02
2017-09-04T13:19:33.163Z,29.72
2017-09-04T13:19:37.011Z,30.21
2017-09-04T13:19:41.084Z,30.49
2017-09-04T13:19:45.035Z,30.4
2017-09-04T13:19:49.116Z,30.59
2017-09-04T13:19:53.339Z,30.59
2017-09-04T13:19:57.306Z,30.68
2017-09-04T13:20:01.380Z,30.68
2017-09-04T13:20:05.707Z,30.47
2017-09-04T13:20:09.662Z,30.97
2017-09-04T13:20:13.731Z,30.97
2017-09-04T13:20:17.815Z,30.76
2017-09-04T13:20:21.765Z,30.85
2017-09-04T13:20:25.842Z,30.66
2017-09-04T13:20:30.054Z,30.66
2017-09-04T13:20:34.146Z,31.23
2017-09-04T13:20:38.231Z,31.23
2017-09-04T13:20:42.348Z,31.13
2017-09-04T13:20:46.526Z,31.33
2017-09-04T13:20:50.617Z,31.23
2017-09-04T13:20:54.960Z,31.32
2017-09-04T13:20:58.941Z,31.41
2017-09-04T13:21:03.432Z,31.51
2017-09-04T13:21:07.770Z,31.41
2017-09-04T13:21:12.233Z,31.51
2017-09-04T13:21:16.567Z,31.71
2017-09-04T13:21:20.647Z,31.6
2017-09-04T13:21:24.736Z,32.09
2017-09-04T13:21:28.822Z,32.09
2017-09-04T13:21:33.035Z,31.79
2017-09-04T13:21:37.373Z,31.6
2017-09-04T13:21:41.456Z,31.99
2017-09-04T13:21:45.557Z,32.27
2017-09-04T13:21:49.780Z,32.27
2017-09-04T13:21:53.746Z,32.17
2017-09-04T13:21:57.705Z,32.37
2017-09-04T13:22:01.802Z,32.45
2017-09-04T13:22:05.906Z,32.56
2017-09-04T13:22:09.860Z,32.54
2017-09-04T13:22:13.806Z,32.84
2017-09-04T13:22:17.882Z,32.84
2017-09-04T13:22:21.974Z,32.74
2017-09-04T13:22:25.937Z,32.84
2017-09-04T13:22:30.132Z,32.74
2017-09-04T13:22:34.103Z,32.56
2017-09-04T13:22:38.051Z,32.66
2017-09-04T13:22:42.259Z,32.87
2017-09-04T13:22:46.461Z,32.59
2017-09-04T13:22:50.420Z,32.61
2017-09-04T13:22:54.385Z,32.21
2017-09-04T13:22:58.212Z,32.31
2017-09-04T13:23:02.424Z,31.82
2017-09-04T13:23:06.389Z,31.9
2017-09-04T13:23:10.473Z,31.51
2017-09-04T13:23:14.557Z,31.51
2017-09-04T13:23:18.646Z,31.7
2017-09-04T13:23:22.732Z,32.28
2017-09-04T13:23:26.690Z,31.89
2017-09-04T13:23:30.903Z,31.79
2017-09-04T13:23:34.750Z,31.99
2017-09-04T13:23:38.840Z,32.27
2017-09-04T13:23:43.045Z,32.48
2017-09-04T13:23:47.257Z,32.89
2017-09-04T13:23:50.962Z,32.79
2017-09-04T13:23:55.165Z,32.41
2017-09-04T13:23:58.860Z,32.41
2017-09-04T13:24:03.436Z,32.72
2017-09-04T13:24:07.401Z,32.34
2017-09-04T13:24:11.358Z,32.24
2017-09-04T13:24:15.439Z,32.05
2017-09-04T13:24:19.637Z,31.87
2017-09-04T13:24:23.978Z,31.87
2017-09-04T13:24:28.053Z,31.59
2017-09-04T13:24:32.271Z,31.69
2017-09-04T13:24:36.353Z,31.88
2017-09-04T13:24:40.490Z,31.88
2017-09-04T13:24:44.583Z,31.79
2017-09-04T13:24:48.658Z,31.41
2017-09-04T13:24:52.610Z,31.51
2017-09-04T13:24:56.559Z,31.32
2017-09-04T13:25:00.643Z,31.52
2017-09-04T13:25:05.221Z,30.75
2017-09-04T13:25:09.311Z,30.94
2017-09-04T13:25:13.653Z,31.04
2017-09-04T13:25:17.867Z,30.76
2017-09-04T13:25:22.075Z,30.57
2017-09-04T13:25:26.154Z,30.68
2017-09-04T13:25:30.375Z,30.38
2017-09-04T13:25:34.720Z,29.89
2017-09-04T13:25:38.940Z,29.79
2017-09-04T13:25:43.154Z,29.89
2017-09-04T13:25:46.981Z,29.99
2017-09-04T13:25:51.060Z,30.19
2017-09-04T13:25:55.151Z,30.09
2017-09-04T13:25:59.357Z,29.91
2017-09-04T13:26:03.577Z,30.1
2017-09-04T13:26:07.531Z,29.61
2017-09-04T13:26:11.369Z,29.72
2017-09-04T13:26:15.574Z,29.52
2017-09-04T13:26:19.780Z,29.72
2017-09-04T13:26:23.863Z,29.43
2017-09-04T13:26:27.735Z,29.44
2017-09-04T13:26:31.966Z,29.54
2017-09-04T13:26:36.173Z,29.16
2017-09-04T13:26:40.632Z,29.16
2017-09-04T13:26:44.707Z,28.86
2017-09-04T13:26:48.926Z,29.06
2017-09-04T13:26:52.998Z,29.27
2017-09-04T13:26:57.330Z,28.78
2017-09-04T13:27:01.412Z,28.67
2017-09-04T13:27:05.366Z,28.28
2017-09-04T13:27:09.458Z,28.39
2017-09-04T13:27:13.787Z,28.09
2017-09-04T13:27:18.154Z,28.2
2017-09-04T13:27:22.111Z,28.39
2017-09-04T13:27:25.936Z,27.91
2017-09-04T13:27:30.018Z,27.81
2017-09-04T13:27:33.855Z,27.81
2017-09-04T13:27:38.081Z,27.72
2017-09-04T13:27:42.538Z,27.42
2017-09-04T13:27:46.497Z,27.81
2017-09-04T13:27:50.471Z,27.83
2017-09-04T13:27:54.813Z,27.63
2017-09-04T13:27:59.155Z,27.73
2017-09-04T13:28:03.372Z,27.63
2017-09-04T13:28:07.578Z,27.84
2017-09-04T13:28:11.402Z,27.55
2017-09-04T13:28:15.608Z,27.55
2017-09-04T13:28:19.437Z,27.25
2017-09-04T13:28:23.650Z,27.36
2017-09-04T13:28:27.623Z,27.36
2017-09-04T13:28:31.600Z,27.36
2017-09-04T13:28:35.555Z,27.26
2017-09-04T13:28:39.880Z,27.26
2017-09-04T13:28:43.977Z,27.08
2017-09-04T13:28:47.931Z,26.98
2017-09-04T13:28:52.251Z,26.86
2017-09-04T13:28:56.448Z,27.08
2017-09-04T13:29:00.414Z,26.87
2017-09-04T13:29:04.754Z,26.78
2017-09-04T13:29:08.832Z,26.68
2017-09-04T13:29:13.159Z,26.49
2017-09-04T13:29:17.511Z,26.48
2017-09-04T13:29:21.773Z,26.37
2017-09-04T13:29:25.985Z,26.55
2017-09-04T13:29:29.950Z,26.54
2017-09-04T13:29:34.144Z,26.25
2017-09-04T13:29:38.347Z,26.82
2017-09-04T13:29:42.316Z,26.62
2017-09-04T13:29:46.778Z,26.81
2017-09-04T13:29:50.757Z,26.7
2017-09-04T13:29:54.850Z,26.9
2017-09-04T13:29:58.949Z,26.9
2017-09-04T13:30:03.411Z,27
2017-09-04T13:30:07.502Z,26.9
2017-09-04T13:30:11.596Z,26.91
2017-09-04T13:30:15.818Z,27.01
2017-09-04T13:30:19.896Z,27.01
2017-09-04T13:30:23.858Z,27.21
2017-09-04T13:30:28.371Z,26.92
2017-09-04T13:30:32.451Z,26.73
2017-09-04T13:30:36.405Z,26.82
2017-09-04T13:30:40.754Z,27.03
2017-09-04T13:30:44.978Z,26.93
2017-09-04T13:30:49.060Z,26.62
2017-09-04T13:30:53.268Z,26.82
2017-09-04T13:30:57.235Z,26.82
2017-09-04T13:31:01.195Z,26.61
2017-09-04T13:31:05.691Z,26.71
2017-09-04T13:31:09.649Z,26.61
2017-09-04T13:31:13.733Z,26.91
2017-09-04T13:31:17.817Z,26.81
2017-09-04T13:31:21.913Z,26.71
2017-09-04T13:31:26.013Z,26.91
2017-09-04T13:31:30.227Z,27.31
2017-09-04T13:31:34.417Z,27.11
2017-09-04T13:31:38.484Z,27.01
2017-09-04T13:31:42.571Z,27.42
2017-09-04T13:31:46.646Z,26.82
2017-09-04T13:31:50.605Z,27.02
2017-09-04T13:31:54.680Z,26.82
2017-09-04T13:31:58.902Z,27.03
2017-09-04T13:32:03.105Z,26.84
2017-09-04T13:32:07.199Z,27.14
2017-09-04T13:32:11.269Z,26.74
2017-09-04T13:32:15.371Z,26.84
2017-09-04T13:32:19.612Z,26.84
2017-09-04T13:32:23.819Z,26.95
2017-09-04T13:32:27.787Z,26.95
2017-09-04T13:32:32.008Z,26.85
2017-09-04T13:32:36.235Z,26.85
2017-09-04T13:32:40.452Z,27.15
2017-09-04T13:32:44.672Z,26.96
2017-09-04T13:32:49.139Z,27.06
2017-09-04T13:32:52.981Z,27.06
2017-09-04T13:32:57.176Z,26.86
2017-09-04T13:33:01.370Z,26.86
2017-09-04T13:33:05.878Z,26.87
2017-09-04T13:33:09.844Z,27.08
2017-09-04T13:33:14.173Z,27.17
2017-09-04T13:33:18.007Z,26.78
2017-09-04T13:33:22.097Z,26.69
2017-09-04T13:33:26.176Z,26.69
2017-09-04T13:33:30.381Z,27.09
2017-09-04T13:33:34.356Z,26.49
2017-09-04T13:33:38.325Z,26.49
2017-09-04T13:33:42.155Z,26.39